Terminal Aerodrome Forecast
Issued by NWS Wilmington, OH

Current Version | Previous Version | Graphics & Text | Print | Product List | Glossary On
Versions: 1 2 3 4 5 6 7 8 9 10 11 12 13 14 15 16 17 18 19 20 21 22 23
000
FTUS41 KILN 050421 AAB
TAFCMH
TAF AMD
KCMH 050421Z 0504/0524 31007KT P6SM OVC035
     FM050600 32007KT P6SM OVC020
     FM050800 35007KT P6SM OVC006
     FM051400 36010KT P6SM BKN020
     FM051900 36015G21KT P6SM BKN040=

USA.gov is the U.S. government's official web portal to all federal, state and local government web resources and services.